Time;durP1;ratioP1;P1;durP2;ratioP2;P2;SDS_P1;SDS_P2;PMS_P1;PMS_P2;Temp;Humidity;BMP_temperature;BMP_pressure;BME280_temperature;BME280_humidity;BME280_pressure;Samples;Min_cycle;Max_cycle;Signal;HPM_P1;HPM_P2
2022/09/07 00:01:46;;;;;;;;;;;;;;;15.25;100.00;98397.22;1670539;84;24509;-87
2022/09/07 00:04:16;;;;;;;;;;;;;;;15.12;100.00;98397.12;1671165;84;20817;-87
2022/09/07 00:06:42;;;;;;;;;;;;;;;14.98;100.00;98402.31;1669525;84;24766;-87
2022/09/07 00:09:10;;;;;;;;;;;;;;;14.82;100.00;98402.83;1671040;84;20428;-87
2022/09/07 00:11:39;;;;;;;;;;;;;;;14.71;100.00;98403.41;1671808;84;26655;-87
2022/09/07 00:14:06;;;;;;;;;;;;;;;14.65;100.00;98406.93;1671570;84;24405;-87
2022/09/07 00:16:32;;;;;;;;;;;;;;;14.67;100.00;98402.02;1673028;84;20291;-87
2022/09/07 00:19:02;;;;;;;;;;;;;;;14.64;100.00;98410.52;1672302;84;24739;-87
2022/09/07 00:21:28;;;;;;;;;;;;;;;14.64;100.00;98414.95;1670842;85;22022;-87
2022/09/07 00:23:54;;;;;;;;;;;;;;;14.66;100.00;98414.35;1671994;84;26026;-87
2022/09/07 00:26:22;;;;;;;;;;;;;;;14.68;100.00;98414.20;1672872;84;20882;-86
2022/09/07 00:28:48;;;;;;;;;;;;;;;14.70;100.00;98409.16;1672125;84;20231;-86
2022/09/07 00:31:17;;;;;;;;;;;;;;;14.75;100.00;98414.86;1671937;84;25500;-86
2022/09/07 00:33:45;;;;;;;;;;;;;;;14.82;100.00;98400.67;1655204;85;20164;-87
2022/09/07 00:36:11;;;;;;;;;;;;;;;14.86;100.00;98400.27;1673092;85;26045;-87
2022/09/07 00:38:41;;;;;;;;;;;;;;;14.87;100.00;98404.57;1671343;84;20282;-87
2022/09/07 00:41:05;;;;;;;;;;;;;;;14.89;100.00;98403.13;1669024;84;20287;-87
2022/09/07 00:43:38;;;;;;;;;;;;;;;14.90;100.00;98401.66;1670778;85;24756;-86
2022/09/07 00:46:07;;;;;;;;;;;;;;;14.89;100.00;98397.34;1671066;84;21986;-87
2022/09/07 00:48:41;;;;;;;;;;;;;;;14.95;100.00;98399.44;1669767;84;26685;-86
2022/09/07 00:51:10;;;;;;;;;;;;;;;15.07;100.00;98402.32;1652813;85;39868;-87
2022/09/07 00:53:38;;;;;;;;;;;;;;;15.07;100.00;98397.05;1669475;84;20263;-87
2022/09/07 00:56:05;;;;;;;;;;;;;;;14.96;100.00;98391.05;1646678;85;24767;-86
2022/09/07 00:58:35;;;;;;;;;;;;;;;14.86;100.00;98397.62;1727716;82;22206;-87
2022/09/07 01:01:02;;;;;;;;;;;;;;;14.77;100.00;98395.81;1725948;82;26777;-87
2022/09/07 01:03:29;;;;;;;;;;;;;;;14.67;100.00;98398.91;1725185;81;24232;-86
2022/09/07 01:06:11;;;;;;;;;;;;;;;14.60;100.00;98399.08;1727487;82;20186;-87
2022/09/07 01:08:34;;;;;;;;;;;;;;;14.55;100.00;98396.84;1727239;82;24749;-87
2022/09/07 01:11:02;;;;;;;;;;;;;;;14.53;100.00;98392.18;1727969;81;20416;-87
2022/09/07 01:13:29;;;;;;;;;;;;;;;14.51;100.00;98392.78;1730407;81;26645;-86
2022/09/07 01:15:59;;;;;;;;;;;;;;;14.48;100.00;98391.75;1727687;81;24753;-86
2022/09/07 01:18:42;;;;;;;;;;;;;;;14.43;100.00;98395.75;1728659;82;20307;-87
2022/09/07 01:21:13;;;;;;;;;;;;;;;14.36;100.00;98390.13;1668362;84;25606;-87
2022/09/07 01:23:57;;;;;;;;;;;;;;;14.35;100.00;98387.63;1640464;86;21993;-87
2022/09/07 01:26:25;;;;;;;;;;;;;;;14.37;100.00;98384.42;1665256;85;25999;-86
2022/09/07 01:28:53;;;;;;;;;;;;;;;14.40;100.00;98379.71;1727252;81;24431;-87
2022/09/07 01:31:24;;;;;;;;;;;;;;;14.40;100.00;98381.55;1722732;82;20232;-87
2022/09/07 01:33:51;;;;;;;;;;;;;;;14.40;100.00;98378.40;1674676;83;25433;-87
2022/09/07 01:36:32;;;;;;;;;;;;;;;14.39;100.00;98375.92;1680503;84;21992;-86
2022/09/07 01:39:04;;;;;;;;;;;;;;;14.35;100.00;98371.83;1680298;84;26054;-87
2022/09/07 01:41:44;;;;;;;;;;;;;;;14.32;100.00;98374.73;1724474;81;23856;-87
2022/09/07 01:44:13;;;;;;;;;;;;;;;14.30;100.00;98372.23;1727327;82;20340;-86
2022/09/07 01:46:43;;;;;;;;;;;;;;;14.30;100.00;98368.76;1720802;82;24776;-87
2022/09/07 01:49:17;;;;;;;;;;;;;;;14.31;100.00;98368.64;1717233;82;22077;-87
2022/09/07 01:51:45;;;;;;;;;;;;;;;14.35;100.00;98361.30;1711948;82;26005;-87
2022/09/07 01:54:12;;;;;;;;;;;;;;;14.39;100.00;98363.59;1717280;81;24567;-86
2022/09/07 01:56:40;;;;;;;;;;;;;;;14.42;100.00;98348.83;1716471;82;20238;-87
2022/09/07 01:59:11;;;;;;;;;;;;;;;14.49;100.00;98337.28;1717998;82;24809;-86
2022/09/07 02:01:41;;;;;;;;;;;;;;;14.52;100.00;98336.52;1713115;82;22079;-87
2022/09/07 02:04:12;;;;;;;;;;;;;;;14.55;100.00;98334.95;1721451;82;26001;-87
2022/09/07 02:06:40;;;;;;;;;;;;;;;14.56;100.00;98333.16;1719958;83;24424;-87
2022/09/07 02:09:08;;;;;;;;;;;;;;;14.56;100.00;98335.80;1716164;82;20166;-87
2022/09/07 02:11:36;;;;;;;;;;;;;;;14.52;100.00;98335.20;1717685;82;25076;-87
2022/09/07 02:14:14;;;;;;;;;;;;;;;14.50;100.00;98342.42;1717590;82;22167;-86
2022/09/07 02:16:42;;;;;;;;;;;;;;;14.45;100.00;98339.84;1717265;81;25909;-87
2022/09/07 02:19:10;;;;;;;;;;;;;;;14.37;100.00;98347.56;1715834;82;24400;-87
2022/09/07 02:21:38;;;;;;;;;;;;;;;14.30;100.00;98352.48;1715569;83;20472;-86
2022/09/07 02:24:11;;;;;;;;;;;;;;;14.23;100.00;98350.89;1716955;82;24998;-86
2022/09/07 02:26:38;;;;;;;;;;;;;;;14.18;100.00;98349.11;1718709;83;21993;-86
2022/09/07 02:29:05;;;;;;;;;;;;;;;14.20;100.00;98351.13;1718027;81;26037;-87
2022/09/07 02:31:31;;;;;;;;;;;;;;;14.20;100.00;98344.55;1717355;82;24397;-87
2022/09/07 02:34:00;;;;;;;;;;;;;;;14.22;100.00;98350.53;1716829;81;20233;-86
2022/09/07 02:36:27;;;;;;;;;;;;;;;14.19;100.00;98357.84;1716546;82;25827;-87
2022/09/07 02:38:56;;;;;;;;;;;;;;;14.18;100.00;98358.83;1715017;82;22231;-86
2022/09/07 02:41:27;;;;;;;;;;;;;;;14.17;100.00;98357.16;1715197;82;26042;-87
2022/09/07 02:43:53;;;;;;;;;;;;;;;14.16;100.00;98349.73;1716349;82;24883;-87
2022/09/07 02:46:20;;;;;;;;;;;;;;;14.16;100.00;98352.84;1676550;84;20796;-86
2022/09/07 02:48:48;;;;;;;;;;;;;;;14.15;100.00;98351.17;1648430;85;24727;-87
2022/09/07 02:51:19;;;;;;;;;;;;;;;14.09;100.00;98356.96;1672223;85;22797;-87
2022/09/07 02:53:58;;;;;;;;;;;;;;;14.10;100.00;98348.11;1676658;84;26161;-86
2022/09/07 02:56:29;;;;;;;;;;;;;;;14.09;100.00;98343.33;1657814;84;25247;-87
2022/09/07 02:59:13;;;;;;;;;;;;;;;14.15;100.00;98349.86;1676716;84;20338;-87
2022/09/07 03:01:41;;;;;;;;;;;;;;;14.14;100.00;98345.55;1676736;84;24781;-86
2022/09/07 03:04:13;;;;;;;;;;;;;;;14.09;100.00;98343.80;1676394;85;22107;-86
2022/09/07 03:06:51;;;;;;;;;;;;;;;14.02;100.00;98342.17;1675905;84;26007;-86
2022/09/07 03:09:21;;;;;;;;;;;;;;;14.00;100.00;98338.86;1677005;84;24711;-87
2022/09/07 03:11:48;;;;;;;;;;;;;;;13.98;100.00;98342.57;1677403;84;20287;-87
2022/09/07 03:14:14;;;;;;;;;;;;;;;13.97;100.00;98333.84;1675635;84;25359;-87
2022/09/07 03:16:41;;;;;;;;;;;;;;;14.03;100.00;98339.06;1677424;84;22237;-87
2022/09/07 03:19:13;;;;;;;;;;;;;;;14.02;100.00;98340.05;1674144;84;25987;-86
2022/09/07 03:21:39;;;;;;;;;;;;;;;14.01;100.00;98339.70;1677139;84;24596;-87
2022/09/07 03:24:11;;;;;;;;;;;;;;;14.02;100.00;98340.05;1674447;84;20255;-87
2022/09/07 03:26:39;;;;;;;;;;;;;;;14.02;100.00;98333.47;1674375;84;24850;-87
2022/09/07 03:29:06;;;;;;;;;;;;;;;14.03;100.00;98333.80;1675774;84;22770;-87
2022/09/07 03:31:32;;;;;;;;;;;;;;;13.98;100.00;98336.83;1675881;84;26170;-87
2022/09/07 03:33:58;;;;;;;;;;;;;;;13.92;100.00;98339.14;1673392;85;24492;-87
2022/09/07 03:36:34;;;;;;;;;;;;;;;13.88;100.00;98343.84;1674609;84;20315;-87
2022/09/07 03:39:01;;;;;;;;;;;;;;;13.82;100.00;98344.35;1674816;84;24996;-87
2022/09/07 03:41:34;;;;;;;;;;;;;;;13.79;100.00;98350.72;1676501;84;21971;-87
2022/09/07 03:44:03;;;;;;;;;;;;;;;13.79;100.00;98345.47;1673956;84;26212;-87
2022/09/07 03:46:35;;;;;;;;;;;;;;;13.81;100.00;98338.25;1670242;84;24425;-87
2022/09/07 03:49:01;;;;;;;;;;;;;;;13.81;100.00;98336.94;1665310;85;20193;-87
2022/09/07 03:51:27;;;;;;;;;;;;;;;13.82;100.00;98338.61;1664546;85;24938;-87
2022/09/07 03:54:01;;;;;;;;;;;;;;;13.77;100.00;98343.91;1665658;85;20248;-87
2022/09/07 03:56:27;;;;;;;;;;;;;;;13.69;100.00;98345.86;1663718;84;26160;-86
2022/09/07 03:58:53;;;;;;;;;;;;;;;13.67;100.00;98345.17;1665434;84;20953;-87
2022/09/07 04:01:21;;;;;;;;;;;;;;;13.72;100.00;98348.73;1664558;85;20185;-86
2022/09/07 04:03:47;;;;;;;;;;;;;;;13.77;100.00;98354.43;1664702;85;24790;-87
2022/09/07 04:06:15;;;;;;;;;;;;;;;13.76;100.00;98356.22;1664987;84;20842;-86
2022/09/07 04:08:41;;;;;;;;;;;;;;;13.72;100.00;98353.51;1665483;84;26099;-87
2022/09/07 04:11:10;;;;;;;;;;;;;;;13.68;100.00;98350.79;1664734;85;24379;-86
2022/09/07 04:13:36;;;;;;;;;;;;;;;13.67;100.00;98355.69;1664973;85;20185;-86
2022/09/07 04:16:19;;;;;;;;;;;;;;;13.68;100.00;98349.47;1665387;86;20272;-87
2022/09/07 04:18:49;;;;;;;;;;;;;;;13.71;100.00;98358.41;1663527;85;21972;-86
2022/09/07 04:21:16;;;;;;;;;;;;;;;13.70;100.00;98362.47;1662672;84;26259;-87
2022/09/07 04:23:43;;;;;;;;;;;;;;;13.80;100.00;98365.52;1663717;85;24589;-87
2022/09/07 04:26:14;;;;;;;;;;;;;;;14.03;100.00;98371.95;1647743;86;20181;-87
2022/09/07 04:28:41;;;;;;;;;;;;;;;14.17;100.00;98369.00;1663834;84;24906;-87
2022/09/07 04:31:11;;;;;;;;;;;;;;;14.21;100.00;98361.19;1665125;84;22883;-87
2022/09/07 04:33:36;;;;;;;;;;;;;;;14.14;100.00;98356.92;1661992;84;25988;-87
2022/09/07 04:36:03;;;;;;;;;;;;;;;14.05;100.00;98351.62;1663653;84;20287;-87
2022/09/07 04:38:29;;;;;;;;;;;;;;;13.95;100.00;98346.79;1662916;84;20205;-86
2022/09/07 04:41:05;;;;;;;;;;;;;;;13.89;100.00;98342.88;1663763;84;20316;-86
2022/09/07 04:43:38;;;;;;;;;;;;;;;13.85;100.00;98340.16;1660321;86;22102;-87
2022/09/07 04:46:09;;;;;;;;;;;;;;;13.75;100.00;98340.56;1668002;84;26000;-87
2022/09/07 04:48:34;;;;;;;;;;;;;;;13.65;100.00;98339.67;1690047;83;24485;-87
2022/09/07 04:51:05;;;;;;;;;;;;;;;13.62;100.00;98342.09;1691055;83;20860;-87
2022/09/07 04:53:32;;;;;;;;;;;;;;;13.61;100.00;98352.25;1689324;83;25010;-87
2022/09/07 04:55:58;;;;;;;;;;;;;;;13.63;100.00;98366.12;1687436;83;21976;-87
2022/09/07 04:58:30;;;;;;;;;;;;;;;13.65;100.00;98363.34;1688355;83;26225;-86
2022/09/07 05:01:03;;;;;;;;;;;;;;;13.65;100.00;98357.60;1691575;83;24414;-87
2022/09/07 05:03:31;;;;;;;;;;;;;;;13.64;100.00;98365.13;1689878;83;20234;-87
2022/09/07 05:05:58;;;;;;;;;;;;;;;13.63;100.00;98363.48;1689847;83;24877;-87
2022/09/07 05:08:24;;;;;;;;;;;;;;;13.64;100.00;98359.88;1691892;83;22068;-87
2022/09/07 05:10:54;;;;;;;;;;;;;;;13.65;100.00;98358.92;1692188;83;21117;-87
2022/09/07 05:13:21;;;;;;;;;;;;;;;13.70;100.00;98365.94;1691714;83;20223;-87
2022/09/07 05:15:47;;;;;;;;;;;;;;;13.79;100.00;98359.09;1692376;85;20239;-87
2022/09/07 05:18:14;;;;;;;;;;;;;;;13.87;100.00;98358.42;1690495;83;20730;-87
2022/09/07 05:20:41;;;;;;;;;;;;;;;13.91;100.00;98361.98;1691790;83;22792;-87
2022/09/07 05:23:08;;;;;;;;;;;;;;;13.96;100.00;98366.40;1692228;85;25980;-87
2022/09/07 05:25:36;;;;;;;;;;;;;;;14.05;100.00;98362.98;1687185;83;23888;-86
2022/09/07 05:28:03;;;;;;;;;;;;;;;14.09;100.00;98359.59;1691433;83;20287;-87
2022/09/07 05:30:31;;;;;;;;;;;;;;;14.15;100.00;98359.91;1660325;85;20486;-86
2022/09/07 05:32:57;;;;;;;;;;;;;;;14.24;100.00;98359.59;1689026;83;21652;-87
2022/09/07 05:35:23;;;;;;;;;;;;;;;14.30;100.00;98351.17;1690544;83;21136;-87
2022/09/07 05:37:49;;;;;;;;;;;;;;;14.32;100.00;98352.36;1690681;83;24266;-87
2022/09/07 05:40:23;;;;;;;;;;;;;;;14.34;100.00;98355.23;1690632;83;20523;-87
2022/09/07 05:42:49;;;;;;;;;;;;;;;14.36;100.00;98365.13;1689610;83;24846;-87
2022/09/07 05:45:15;;;;;;;;;;;;;;;14.39;100.00;98368.86;1687984;83;29932;-87
2022/09/07 05:47:41;;;;;;;;;;;;;;;14.40;100.00;98366.55;1682439;84;26735;-87
2022/09/07 05:50:08;;;;;;;;;;;;;;;14.42;100.00;98361.99;1662386;85;20885;-87
2022/09/07 05:52:34;;;;;;;;;;;;;;;14.44;100.00;98367.97;1665716;85;20200;-87
2022/09/07 05:55:00;;;;;;;;;;;;;;;14.44;100.00;98361.39;1721167;82;24775;-86
2022/09/07 05:57:30;;;;;;;;;;;;;;;14.48;100.00;98359.31;1722021;82;20860;-86
2022/09/07 06:00:01;;;;;;;;;;;;;;;14.51;100.00;98359.87;1720994;82;26725;-87
2022/09/07 06:02:27;;;;;;;;;;;;;;;14.56;100.00;98347.13;1678251;84;24569;-87
2022/09/07 06:04:58;;;;;;;;;;;;;;;14.62;100.00;98346.59;1679382;84;20197;-87
2022/09/07 06:07:24;;;;;;;;;;;;;;;14.66;100.00;98344.55;1680619;84;24924;-87
2022/09/07 06:09:50;;;;;;;;;;;;;;;14.73;100.00;98344.85;1664826;85;20235;-87
2022/09/07 06:12:16;;;;;;;;;;;;;;;14.80;100.00;98349.42;1719321;82;21299;-87
2022/09/07 06:14:42;;;;;;;;;;;;;;;14.85;100.00;98343.74;1722112;82;21926;-87
2022/09/07 06:17:08;;;;;;;;;;;;;;;14.88;100.00;98345.64;1720961;82;20285;-87
2022/09/07 06:19:36;;;;;;;;;;;;;;;14.86;100.00;98339.66;1719612;81;20344;-87
2022/09/07 06:22:08;;;;;;;;;;;;;;;14.85;100.00;98337.98;1721630;82;22224;-87
2022/09/07 06:24:34;;;;;;;;;;;;;;;14.88;100.00;98335.58;1722752;82;26014;-87
2022/09/07 06:27:00;;;;;;;;;;;;;;;14.94;100.00;98338.51;1678195;84;20325;-87
2022/09/07 06:29:25;;;;;;;;;;;;;;;15.05;100.00;98338.87;1719173;82;20306;-87
2022/09/07 06:31:52;;;;;;;;;;;;;;;15.10;100.00;98333.18;1720571;82;20762;-87
2022/09/07 06:34:19;;;;;;;;;;;;;;;15.11;100.00;98329.58;1676035;84;21977;-87
2022/09/07 06:36:45;;;;;;;;;;;;;;;15.09;100.00;98332.34;1718171;82;26120;-87
2022/09/07 06:39:11;;;;;;;;;;;;;;;15.10;100.00;98341.09;1721952;82;20943;-87
2022/09/07 06:41:38;;;;;;;;;;;;;;;15.17;100.00;98348.28;1716053;82;20216;-87
2022/09/07 06:44:03;;;;;;;;;;;;;;;15.39;100.00;98347.18;1676299;84;20208;-87
2022/09/07 06:46:30;;;;;;;;;;;;;;;15.53;100.00;98339.37;1675055;84;20283;-86
2022/09/07 06:49:02;;;;;;;;;;;;;;;15.50;100.00;98343.08;1670735;85;26029;-86
2022/09/07 06:51:29;;;;;;;;;;;;;;;15.47;100.00;98345.53;1675851;84;24485;-86
2022/09/07 06:53:55;;;;;;;;;;;;;;;15.42;100.00;98342.48;1670944;85;20264;-86
2022/09/07 06:56:23;;;;;;;;;;;;;;;15.36;100.00;98337.76;1676279;84;25429;-87
2022/09/07 06:58:55;;;;;;;;;;;;;;;15.35;100.00;98336.58;1676620;84;22152;-87
2022/09/07 07:01:28;;;;;;;;;;;;;;;15.35;100.00;98332.62;1676795;84;26030;-87
2022/09/07 07:04:03;;;;;;;;;;;;;;;15.34;100.00;98331.78;1673008;85;24572;-87
2022/09/07 07:06:34;;;;;;;;;;;;;;;15.33;100.00;98328.80;1675249;84;20251;-87
2022/09/07 07:09:00;;;;;;;;;;;;;;;15.36;100.00;98329.84;1674055;84;24972;-87
2022/09/07 07:11:26;;;;;;;;;;;;;;;15.47;100.00;98323.59;1676727;84;22068;-87
2022/09/07 07:13:53;;;;;;;;;;;;;;;15.59;100.00;98330.91;1677074;84;21724;-87
2022/09/07 07:16:19;;;;;;;;;;;;;;;15.66;100.00;98331.50;1676649;84;24449;-86
2022/09/07 07:18:50;;;;;;;;;;;;;;;15.75;100.00;98341.71;1676660;84;20200;-87
2022/09/07 07:21:15;;;;;;;;;;;;;;;15.82;100.00;98346.74;1675548;84;25705;-87
2022/09/07 07:23:41;;;;;;;;;;;;;;;15.91;100.00;98340.63;1676551;84;22084;-87
2022/09/07 07:26:09;;;;;;;;;;;;;;;16.00;100.00;98347.69;1676688;84;21182;-87
2022/09/07 07:28:35;;;;;;;;;;;;;;;16.07;100.00;98339.55;1676672;84;24456;-87
2022/09/07 07:31:06;;;;;;;;;;;;;;;16.18;100.00;98342.50;1675154;84;20881;-87
2022/09/07 07:33:31;;;;;;;;;;;;;;;16.25;100.00;98341.78;1674359;84;24834;-87
2022/09/07 07:36:11;;;;;;;;;;;;;;;16.35;100.00;98339.58;1674804;84;21961;-87
2022/09/07 07:38:41;;;;;;;;;;;;;;;16.39;100.00;98332.54;1675214;84;26924;-87
2022/09/07 07:41:07;;;;;;;;;;;;;;;16.44;100.00;98338.21;1675423;84;24509;-87
2022/09/07 07:43:33;;;;;;;;;;;;;;;16.48;100.00;98328.17;1677112;84;20488;-87
2022/09/07 07:46:00;;;;;;;;;;;;;;;16.54;100.00;98325.78;1675542;84;20212;-87
2022/09/07 07:48:26;;;;;;;;;;;;;;;16.61;100.00;98333.99;1657794;85;21445;-87
2022/09/07 07:51:03;;;;;;;;;;;;;;;16.70;100.00;98332.61;1652166;85;32952;-87
2022/09/07 07:53:29;;;;;;;;;;;;;;;16.78;100.00;98329.72;1650666;85;24421;-87
2022/09/07 07:56:00;;;;;;;;;;;;;;;16.84;100.00;98336.58;1652827;85;20279;-87
2022/09/07 07:58:27;;;;;;;;;;;;;;;16.89;100.00;98337.45;1652710;85;24860;-87
2022/09/07 08:00:57;;;;;;;;;;;;;;;16.96;100.00;98339.36;1653667;85;21857;-87
2022/09/07 08:03:23;;;;;;;;;;;;;;;17.06;100.00;98337.47;1653101;85;25998;-87
2022/09/07 08:05:52;;;;;;;;;;;;;;;17.12;100.00;98332.91;1652853;86;24523;-87
2022/09/07 08:08:19;;;;;;;;;;;;;;;17.15;100.00;98336.56;1652376;85;20307;-87
2022/09/07 08:10:46;;;;;;;;;;;;;;;17.24;100.00;98329.52;1653358;85;24716;-87
2022/09/07 08:13:14;;;;;;;;;;;;;;;17.33;100.00;98329.13;1653706;86;22952;-87
2022/09/07 08:15:47;;;;;;;;;;;;;;;17.42;100.00;98326.88;1653083;85;26030;-87
2022/09/07 08:18:11;;;;;;;;;;;;;;;17.50;100.00;98325.63;1652713;85;24562;-87
2022/09/07 08:20:43;;;;;;;;;;;;;;;17.54;100.00;98326.98;1653450;85;20186;-87
2022/09/07 08:23:16;;;;;;;;;;;;;;;17.60;100.00;98327.73;1653595;86;24761;-87
2022/09/07 08:25:57;;;;;;;;;;;;;;;17.61;100.00;98329.39;1652938;85;22879;-87
2022/09/07 08:28:22;;;;;;;;;;;;;;;17.65;100.00;98328.09;1652864;85;25974;-87
2022/09/07 08:31:00;;;;;;;;;;;;;;;17.76;100.00;98332.30;1653735;85;24467;-87
2022/09/07 08:33:27;;;;;;;;;;;;;;;17.83;100.00;98329.39;1650725;85;20229;-87
2022/09/07 08:36:01;;;;;;;;;;;;;;;17.86;100.00;98325.92;1652304;86;20842;-87
2022/09/07 08:38:28;;;;;;;;;;;;;;;17.94;100.00;98323.34;1651936;85;22812;-87
2022/09/07 08:40:55;;;;;;;;;;;;;;;18.04;100.00;98319.75;1652338;85;26750;-87
2022/09/07 08:43:30;;;;;;;;;;;;;;;18.09;100.00;98320.11;1652148;85;25329;-87
2022/09/07 08:46:20;;;;;;;;;;;;;;;18.15;100.00;98322.96;1653518;85;20195;-87
2022/09/07 08:48:47;;;;;;;;;;;;;;;18.21;100.00;98321.02;1670042;84;25279;-87
2022/09/07 08:51:27;;;;;;;;;;;;;;;18.25;100.00;98322.84;1677072;84;22000;-87
2022/09/07 08:53:53;;;;;;;;;;;;;;;18.31;100.00;98315.09;1674947;84;26100;-87
2022/09/07 08:56:22;;;;;;;;;;;;;;;18.39;100.00;98306.33;1676951;85;23979;-87
2022/09/07 08:58:50;;;;;;;;;;;;;;;18.47;100.00;98309.52;1710883;82;20250;-87
2022/09/07 09:01:31;;;;;;;;;;;;;;;18.54;100.00;98310.55;1708281;83;25571;-87
2022/09/07 09:04:00;;;;;;;;;;;;;;;18.58;100.00;98307.95;1676447;84;21984;-86
2022/09/07 09:06:32;;;;;;;;;;;;;;;18.67;100.00;98314.92;1672602;84;26088;-87
2022/09/07 09:09:19;;;;;;;;;;;;;;;18.75;100.00;98321.59;1711840;83;24455;-87
2022/09/07 09:11:52;;;;;;;;;;;;;;;18.82;100.00;98320.45;1709016;83;20212;-87
2022/09/07 09:14:38;;;;;;;;;;;;;;;18.87;100.00;98315.50;1711861;82;25323;-87
2022/09/07 09:17:06;;;;;;;;;;;;;;;18.96;100.00;98318.48;1712160;83;21953;-87
2022/09/07 09:19:49;;;;;;;;;;;;;;;19.05;100.00;98317.01;1711982;82;26335;-87
2022/09/07 09:22:16;;;;;;;;;;;;;;;19.11;100.00;98318.17;1710201;83;24418;-87
2022/09/07 09:24:44;;;;;;;;;;;;;;;19.22;100.00;98307.25;1713345;83;20245;-86
2022/09/07 09:27:10;;;;;;;;;;;;;;;19.30;100.00;98304.62;1674938;84;24820;-86
2022/09/07 09:29:36;;;;;;;;;;;;;;;19.35;100.00;98304.11;1652181;84;20358;-87
2022/09/07 09:32:20;;;;;;;;;;;;;;;19.41;100.00;98299.48;1676042;84;21240;-87
2022/09/07 09:35:02;;;;;;;;;;;;;;;19.47;100.00;98294.37;1668717;84;24475;-86
2022/09/07 09:37:39;;;;;;;;;;;;;;;19.58;100.00;98297.98;1674114;85;20233;-87
2022/09/07 09:40:08;;;;;;;;;;;;;;;19.62;100.00;98292.70;1620456;87;26972;-87
2022/09/07 09:42:34;;;;;;;;;;;;;;;19.68;100.00;98290.36;1673017;84;22060;-86
2022/09/07 09:45:15;;;;;;;;;;;;;;;19.72;100.00;98282.38;1672793;84;25975;-86
2022/09/07 09:47:44;;;;;;;;;;;;;;;19.79;100.00;98278.06;1650747;84;21499;-86
2022/09/07 09:50:24;;;;;;;;;;;;;;;19.83;100.00;98283.36;1669780;85;20244;-86
2022/09/07 09:52:51;;;;;;;;;;;;;;;19.90;100.00;98285.19;1679346;84;24765;-86
2022/09/07 09:55:26;;;;;;;;;;;;;;;19.99;100.00;98283.33;1676397;85;21930;-87
2022/09/07 09:58:03;;;;;;;;;;;;;;;20.03;100.00;98283.31;1658468;85;26723;-86
2022/09/07 10:00:30;;;;;;;;;;;;;;;20.07;100.00;98285.14;1689056;85;25097;-86
2022/09/07 10:03:05;;;;;;;;;;;;;;;20.12;100.00;98288.95;1691488;83;20216;-86
2022/09/07 10:05:38;;;;;;;;;;;;;;;20.19;100.00;98282.42;1691032;85;24870;-87
2022/09/07 10:08:06;;;;;;;;;;;;;;;20.29;100.00;98273.25;1691320;83;23470;-86
2022/09/07 10:10:32;;;;;;;;;;;;;;;20.39;100.00;98271.77;1690444;85;26175;-87
2022/09/07 10:12:58;;;;;;;;;;;;;;;20.42;100.00;98269.58;1691279;83;24491;-86
2022/09/07 10:15:27;;;;;;;;;;;;;;;20.46;100.00;98272.21;1691560;83;20292;-87
2022/09/07 10:18:08;;;;;;;;;;;;;;;20.54;100.00;98266.54;1691710;83;25567;-87
2022/09/07 10:20:38;;;;;;;;;;;;;;;20.58;100.00;98265.19;1690137;83;21102;-87
2022/09/07 10:23:23;;;;;;;;;;;;;;;20.63;100.00;98273.46;1691344;83;25751;-86
2022/09/07 10:25:55;;;;;;;;;;;;;;;20.69;100.00;98273.59;1691586;83;24489;-86
2022/09/07 10:28:24;;;;;;;;;;;;;;;20.74;100.00;98272.56;1689331;85;20494;-87
2022/09/07 10:31:07;;;;;;;;;;;;;;;20.78;100.00;98270.41;1691206;83;25525;-86
2022/09/07 10:33:50;;;;;;;;;;;;;;;20.78;100.00;98275.73;1690875;83;22183;-86
2022/09/07 10:36:26;;;;;;;;;;;;;;;20.81;100.00;98270.87;1691568;83;25565;-86
2022/09/07 10:38:57;;;;;;;;;;;;;;;20.85;100.00;98270.02;1689649;83;23834;-86
2022/09/07 10:41:25;;;;;;;;;;;;;;;20.88;100.00;98278.98;1691078;84;20294;-86
2022/09/07 10:43:51;;;;;;;;;;;;;;;21.02;100.00;98278.22;1689386;83;24725;-87
2022/09/07 10:46:34;;;;;;;;;;;;;;;21.09;100.00;98272.52;1691657;83;20332;-86
2022/09/07 10:49:05;;;;;;;;;;;;;;;21.20;100.00;98276.13;1683652;84;26238;-87
2022/09/07 10:51:33;;;;;;;;;;;;;;;21.25;100.00;98275.09;1679003;84;24537;-87
2022/09/07 10:54:08;;;;;;;;;;;;;;;21.29;100.00;98269.73;1678392;85;20194;-87
2022/09/07 10:56:52;;;;;;;;;;;;;;;21.32;100.00;98271.22;1679173;84;24772;-87
2022/09/07 10:59:21;;;;;;;;;;;;;;;21.33;100.00;98272.85;1679569;85;21917;-86
2022/09/07 11:01:49;;;;;;;;;;;;;;;21.34;100.00;98268.36;1681039;84;26764;-86
2022/09/07 11:04:20;;;;;;;;;;;;;;;21.38;100.00;98268.34;1724000;83;24664;-87
2022/09/07 11:06:48;;;;;;;;;;;;;;;21.43;100.00;98269.97;1719377;82;20279;-87
2022/09/07 11:09:16;;;;;;;;;;;;;;;21.52;100.00;98269.70;1720411;83;24985;-87
2022/09/07 11:11:44;;;;;;;;;;;;;;;21.64;100.00;98271.44;1721978;82;21999;-87
2022/09/07 11:14:12;;;;;;;;;;;;;;;21.71;100.00;98269.71;1719987;83;26618;-87
2022/09/07 11:16:41;;;;;;;;;;;;;;;21.78;100.00;98273.78;1679504;85;25296;-87
2022/09/07 11:19:12;;;;;;;;;;;;;;;21.93;100.00;98270.13;1721312;83;20130;-88
2022/09/07 11:21:47;;;;;;;;;;;;;;;22.01;100.00;98268.75;1720326;83;24903;-88
2022/09/07 11:24:21;;;;;;;;;;;;;;;22.04;100.00;98266.20;1721246;83;22686;-87
2022/09/07 11:26:57;;;;;;;;;;;;;;;21.97;100.00;98264.80;1679905;85;26746;-87
2022/09/07 11:29:38;;;;;;;;;;;;;;;21.94;100.00;98267.81;1668651;85;24658;-87
2022/09/07 11:32:09;;;;;;;;;;;;;;;21.96;100.00;98261.81;1670898;85;20302;-87
2022/09/07 11:34:37;;;;;;;;;;;;;;;22.02;100.00;98269.58;1717793;83;24882;-87
2022/09/07 11:37:11;;;;;;;;;;;;;;;22.14;100.00;98261.45;1719867;83;22160;-87
2022/09/07 11:39:44;;;;;;;;;;;;;;;22.20;100.00;98261.22;1720979;82;27010;-87
2022/09/07 11:42:15;;;;;;;;;;;;;;;22.23;100.00;98263.50;1721247;83;24609;-87
2022/09/07 11:44:46;;;;;;;;;;;;;;;22.24;100.00;98256.66;1720404;82;20156;-87
2022/09/07 11:47:13;;;;;;;;;;;;;;;22.40;100.00;98256.96;1720687;82;25455;-87
2022/09/07 11:49:41;;;;;;;;;;;;;;;22.40;100.00;98247.63;1667296;84;22838;-87
2022/09/07 11:52:14;;;;;;;;;;;;;;;22.40;100.00;98243.13;1667189;85;26750;-87
2022/09/07 11:54:42;;;;;;;;;;;;;;;22.37;100.00;98242.65;1724471;82;24419;-87
2022/09/07 11:57:09;;;;;;;;;;;;;;;22.39;100.00;98241.97;1728515;82;20246;-87
2022/09/07 11:59:37;;;;;;;;;;;;;;;22.50;100.00;98243.66;1729028;82;24815;-87
2022/09/07 12:02:13;;;;;;;;;;;;;;;22.60;100.00;98238.02;1726467;81;22231;-87
2022/09/07 12:04:47;;;;;;;;;;;;;;;22.72;100.00;98234.38;1725287;82;25955;-87
2022/09/07 12:07:26;;;;;;;;;;;;;;;22.74;100.00;98230.52;1724958;82;24454;-87
2022/09/07 12:09:58;;;;;;;;;;;;;;;22.79;100.00;98233.45;1728525;82;20310;-87
2022/09/07 12:12:26;;;;;;;;;;;;;;;22.88;100.00;98232.81;1726282;81;24759;-87
2022/09/07 12:14:59;;;;;;;;;;;;;;;22.94;100.00;98226.20;1676563;84;21966;-87
2022/09/07 12:17:30;;;;;;;;;;;;;;;22.97;100.00;98233.50;1681689;84;26028;-87
2022/09/07 12:20:11;;;;;;;;;;;;;;;22.90;100.00;98232.13;1728320;82;24377;-87
2022/09/07 12:22:36;;;;;;;;;;;;;;;22.88;100.00;98226.97;1726601;82;20252;-87
2022/09/07 12:25:14;;;;;;;;;;;;;;;22.90;100.00;98230.28;1727961;81;24573;-87
2022/09/07 12:27:40;;;;;;;;;;;;;;;22.92;100.00;98228.23;1727132;82;22063;-87
2022/09/07 12:30:14;;;;;;;;;;;;;;;23.05;100.00;98228.88;1729572;82;21037;-87
2022/09/07 12:32:53;;;;;;;;;;;;;;;23.04;100.00;98228.55;1726109;81;25092;-87
2022/09/07 12:35:34;;;;;;;;;;;;;;;23.05;100.00;98224.87;1722068;82;20294;-87
2022/09/07 12:38:01;;;;;;;;;;;;;;;23.02;100.00;98226.57;1670982;84;25476;-87
2022/09/07 12:40:34;;;;;;;;;;;;;;;22.97;100.00;98220.98;1639939;86;21926;-87
2022/09/07 12:43:14;;;;;;;;;;;;;;;22.96;100.00;98222.53;1666397;84;26424;-87
2022/09/07 12:45:42;;;;;;;;;;;;;;;23.04;100.00;98215.71;1722471;82;24445;-87
2022/09/07 12:48:15;;;;;;;;;;;;;;;23.16;100.00;98220.36;1726108;82;20212;-87
2022/09/07 12:50:50;;;;;;;;;;;;;;;23.19;100.00;98216.45;1688210;83;25055;-87